createdAt,value
2018-12-20T00:00:32.728Z,3.20
2018-12-20T00:03:01.043Z,3.20
2018-12-20T00:05:29.351Z,3.20
2018-12-20T00:07:57.508Z,3.10
2018-12-20T00:10:25.638Z,3.10
2018-12-20T00:12:53.780Z,3.10
2018-12-20T00:15:22.024Z,3.10
2018-12-20T00:17:51.808Z,3.10
2018-12-20T00:20:19.926Z,3.10
2018-12-20T00:22:48.102Z,3.00
2018-12-20T00:25:16.366Z,3.10
2018-12-20T00:27:44.588Z,3.10
2018-12-20T00:30:12.807Z,3.10
2018-12-20T00:32:41.022Z,3.10
2018-12-20T00:35:09.191Z,3.00
2018-12-20T00:37:37.575Z,2.90
2018-12-20T00:40:07.011Z,2.90
2018-12-20T00:42:35.514Z,2.90
2018-12-20T00:45:04.005Z,2.80
2018-12-20T00:47:32.273Z,2.80
2018-12-20T00:50:00.566Z,2.70
2018-12-20T00:52:28.763Z,2.60
2018-12-20T00:54:56.916Z,2.40
2018-12-20T00:57:25.124Z,2.30
2018-12-20T00:59:53.465Z,2.30
2018-12-20T01:02:21.701Z,2.20
2018-12-20T01:04:49.983Z,2.20
2018-12-20T01:07:18.262Z,2.10
2018-12-20T01:09:46.453Z,2.10
2018-12-20T01:12:14.576Z,2.10
2018-12-20T01:14:45.503Z,2.00
2018-12-20T01:17:12.848Z,1.90
2018-12-20T01:19:41.155Z,1.80
2018-12-20T01:22:09.425Z,1.70
2018-12-20T01:24:37.640Z,1.70
2018-12-20T01:27:05.937Z,1.70
2018-12-20T01:29:34.211Z,1.60
2018-12-20T01:32:02.419Z,1.60
2018-12-20T01:34:30.619Z,1.60
2018-12-20T01:36:58.821Z,1.70
2018-12-20T01:39:26.975Z,1.60
2018-12-20T01:41:55.157Z,1.50
2018-12-20T01:44:23.292Z,1.50
2018-12-20T01:46:51.781Z,1.50
2018-12-20T01:49:20.000Z,1.50
2018-12-20T01:51:48.443Z,1.60
2018-12-20T01:54:16.621Z,1.60
2018-12-20T01:56:44.836Z,1.50
2018-12-20T01:59:13.233Z,1.50
2018-12-20T02:01:41.375Z,1.50
2018-12-20T02:04:09.617Z,1.60
2018-12-20T02:06:38.019Z,1.60
2018-12-20T02:09:08.670Z,1.60
2018-12-20T02:11:37.109Z,1.70
2018-12-20T02:14:05.463Z,1.80
2018-12-20T02:16:33.820Z,1.70
2018-12-20T02:19:02.272Z,1.70
2018-12-20T02:21:30.618Z,1.70
2018-12-20T02:23:58.944Z,1.60
2018-12-20T02:26:27.077Z,1.60
2018-12-20T02:28:55.296Z,1.70
2018-12-20T02:31:23.499Z,1.70
2018-12-20T02:33:51.713Z,1.70
2018-12-20T02:36:19.848Z,1.70
2018-12-20T02:38:47.972Z,1.70
2018-12-20T02:41:16.234Z,1.70
2018-12-20T02:43:44.463Z,1.80
2018-12-20T02:46:12.717Z,1.90
2018-12-20T02:48:40.870Z,2.00
2018-12-20T02:51:09.433Z,2.10
2018-12-20T02:53:37.713Z,2.20
2018-12-20T02:56:06.016Z,2.20
2018-12-20T02:58:34.555Z,2.30
2018-12-20T03:01:02.789Z,2.20
2018-12-20T03:03:31.044Z,2.20
2018-12-20T03:05:59.283Z,2.20
2018-12-20T03:08:27.487Z,2.00
2018-12-20T03:10:55.972Z,2.00
2018-12-20T03:13:24.346Z,1.80
2018-12-20T03:15:52.793Z,1.70
2018-12-20T03:18:21.047Z,1.50
2018-12-20T03:20:49.588Z,1.40
2018-12-20T03:23:17.864Z,1.40
2018-12-20T03:25:46.097Z,1.40
2018-12-20T03:28:14.397Z,1.40
2018-12-20T03:30:42.594Z,1.30
2018-12-20T03:33:10.922Z,1.30
2018-12-20T03:35:39.145Z,1.30
2018-12-20T03:38:07.645Z,1.30
2018-12-20T03:40:36.076Z,1.40
2018-12-20T03:43:04.319Z,1.40
2018-12-20T03:45:32.590Z,1.50
2018-12-20T03:48:00.972Z,1.50
2018-12-20T03:50:29.421Z,0.70
2018-12-20T03:52:57.665Z,1.90
2018-12-20T03:55:26.026Z,1.90
2018-12-20T03:57:54.482Z,1.80
2018-12-20T04:00:23.298Z,1.70
2018-12-20T04:02:51.489Z,1.60
2018-12-20T04:05:19.627Z,1.50
2018-12-20T04:07:47.757Z,1.40
2018-12-20T04:10:15.943Z,1.30
2018-12-20T04:12:44.281Z,1.20
2018-12-20T04:15:12.419Z,1.10
2018-12-20T04:17:40.585Z,1.20
2018-12-20T04:20:08.800Z,1.40
2018-12-20T04:22:37.149Z,1.50
2018-12-20T04:25:05.724Z,1.50
2018-12-20T04:27:34.158Z,1.60
2018-12-20T04:30:02.599Z,1.70
2018-12-20T04:32:30.839Z,1.70
2018-12-20T04:34:59.074Z,1.70
2018-12-20T04:37:27.280Z,1.60
2018-12-20T04:39:55.464Z,1.50
2018-12-20T04:42:23.804Z,1.50
2018-12-20T04:44:52.073Z,1.50
2018-12-20T04:47:20.546Z,1.60
2018-12-20T04:49:48.823Z,1.60
2018-12-20T04:52:17.076Z,1.70
2018-12-20T04:54:45.607Z,1.80
2018-12-20T04:57:14.162Z,1.80
2018-12-20T04:59:42.490Z,2.00
2018-12-20T05:02:10.911Z,2.00
2018-12-20T05:04:39.203Z,2.10
2018-12-20T05:07:07.459Z,2.20
2018-12-20T05:09:35.669Z,2.40
2018-12-20T05:12:03.965Z,2.40
2018-12-20T05:14:32.158Z,2.50
2018-12-20T05:17:00.695Z,2.60
2018-12-20T05:19:28.866Z,2.60
2018-12-20T05:21:57.095Z,2.70
2018-12-20T05:24:25.291Z,2.70
2018-12-20T05:26:53.632Z,2.70
2018-12-20T05:29:22.048Z,2.70
2018-12-20T05:31:50.233Z,2.70
2018-12-20T05:34:18.584Z,2.70
2018-12-20T05:36:46.934Z,2.60
2018-12-20T05:39:15.168Z,2.60
2018-12-20T05:41:43.401Z,2.70
2018-12-20T05:44:11.959Z,2.60
2018-12-20T05:46:40.550Z,2.60
2018-12-20T05:49:08.771Z,2.70
2018-12-20T05:51:39.657Z,2.70
2018-12-20T05:54:07.945Z,2.70
2018-12-20T05:56:37.537Z,2.80
2018-12-20T05:59:05.867Z,2.80
2018-12-20T06:01:34.134Z,2.80
2018-12-20T06:04:02.687Z,2.80
2018-12-20T06:06:30.973Z,2.90
2018-12-20T06:08:59.206Z,2.90
2018-12-20T06:11:27.436Z,2.80
2018-12-20T06:13:55.797Z,2.70
2018-12-20T06:16:24.102Z,2.70
2018-12-20T06:18:52.329Z,2.70
2018-12-20T06:21:20.608Z,2.70
2018-12-20T06:23:48.904Z,2.80
2018-12-20T06:26:17.134Z,2.70
2018-12-20T06:28:45.356Z,2.80
2018-12-20T06:31:13.555Z,2.90
2018-12-20T06:33:41.720Z,2.80
2018-12-20T06:36:09.991Z,2.80
2018-12-20T06:38:38.206Z,2.90
2018-12-20T06:41:06.352Z,2.90
2018-12-20T06:43:34.516Z,2.80
2018-12-20T06:46:02.662Z,2.80
2018-12-20T06:48:30.815Z,2.90
2018-12-20T06:50:59.042Z,2.90
2018-12-20T06:53:27.228Z,2.80
2018-12-20T06:55:55.388Z,2.90
2018-12-20T06:58:23.609Z,2.90
2018-12-20T07:00:51.769Z,2.90
2018-12-20T07:03:19.984Z,3.00
2018-12-20T07:05:48.142Z,3.10
2018-12-20T07:08:16.385Z,3.00
2018-12-20T07:10:44.627Z,3.00
2018-12-20T07:13:12.778Z,2.90
2018-12-20T07:15:40.939Z,2.80
2018-12-20T07:18:09.070Z,2.90
2018-12-20T07:20:37.244Z,2.80
2018-12-20T07:23:05.365Z,2.70
2018-12-20T07:25:33.522Z,2.70
2018-12-20T07:28:01.675Z,2.70
2018-12-20T07:30:29.826Z,2.70
2018-12-20T07:32:57.976Z,2.60
2018-12-20T07:35:26.228Z,2.60
2018-12-20T07:37:54.379Z,2.60
2018-12-20T07:40:22.796Z,2.60
2018-12-20T07:42:51.012Z,2.60
2018-12-20T07:45:19.228Z,2.70
2018-12-20T07:47:47.456Z,2.70
2018-12-20T07:50:15.680Z,2.70
2018-12-20T07:52:43.848Z,2.70
2018-12-20T07:55:12.061Z,2.80
2018-12-20T07:57:40.205Z,2.80
2018-12-20T08:00:08.351Z,2.80
2018-12-20T08:02:36.579Z,2.90
2018-12-20T08:05:04.867Z,2.90
2018-12-20T08:07:33.088Z,2.90
2018-12-20T08:10:01.236Z,3.00
2018-12-20T08:12:29.375Z,3.10
2018-12-20T08:14:57.508Z,3.20
2018-12-20T08:17:25.732Z,3.30
2018-12-20T08:19:53.933Z,3.40
2018-12-20T08:22:22.085Z,3.50
2018-12-20T08:24:50.264Z,3.50
2018-12-20T08:27:18.486Z,3.60
2018-12-20T08:29:47.361Z,3.70
2018-12-20T08:32:15.735Z,3.80
2018-12-20T08:34:43.913Z,3.90
2018-12-20T08:37:12.167Z,3.90
2018-12-20T08:39:40.413Z,4.00
2018-12-20T08:42:08.738Z,4.00
2018-12-20T08:44:36.893Z,4.10
2018-12-20T08:47:05.054Z,4.20
2018-12-20T08:49:33.179Z,4.20
2018-12-20T08:52:01.406Z,4.30
2018-12-20T08:54:29.573Z,4.50
2018-12-20T08:56:57.708Z,4.70
2018-12-20T08:59:25.839Z,4.90
2018-12-20T09:01:53.971Z,5.20
2018-12-20T09:04:22.189Z,6.00
2018-12-20T09:06:51.556Z,7.20
2018-12-20T09:09:19.690Z,8.20
2018-12-20T09:11:47.826Z,8.50
2018-12-20T09:14:16.298Z,8.60
2018-12-20T09:16:44.663Z,9.00
2018-12-20T09:19:12.814Z,9.20
2018-12-20T09:21:41.019Z,8.70
2018-12-20T09:24:09.173Z,9.00
2018-12-20T09:26:37.298Z,9.80
2018-12-20T09:29:05.443Z,10.50
2018-12-20T09:31:33.603Z,11.20
2018-12-20T09:34:01.764Z,11.80
2018-12-20T09:36:29.905Z,12.50
2018-12-20T09:38:58.056Z,12.80
2018-12-20T09:41:26.202Z,12.70
2018-12-20T09:43:54.330Z,11.30
2018-12-20T09:46:22.480Z,9.90
2018-12-20T09:48:50.693Z,8.70
2018-12-20T09:51:18.909Z,7.80
2018-12-20T09:53:47.086Z,7.20
2018-12-20T09:56:15.218Z,6.80
2018-12-20T09:58:43.347Z,6.50
2018-12-20T10:01:11.497Z,6.30
2018-12-20T10:03:39.648Z,6.20
2018-12-20T10:06:07.768Z,6.10
2018-12-20T10:08:35.897Z,6.30
2018-12-20T10:11:04.175Z,6.50
2018-12-20T10:13:32.308Z,6.50
2018-12-20T10:16:00.428Z,6.50
2018-12-20T10:18:28.581Z,7.00
2018-12-20T10:20:56.717Z,7.60
2018-12-20T10:23:24.857Z,7.80
2018-12-20T10:25:53.008Z,7.70
2018-12-20T10:28:21.133Z,7.50
2018-12-20T10:30:49.283Z,7.30
2018-12-20T10:33:17.789Z,6.90
2018-12-20T10:35:46.041Z,6.80
2018-12-20T10:38:14.179Z,6.60
2018-12-20T10:40:43.904Z,6.50
2018-12-20T10:43:12.056Z,6.40
2018-12-20T10:45:40.189Z,6.30
2018-12-20T10:48:08.376Z,6.30
2018-12-20T10:50:36.601Z,6.30
2018-12-20T10:53:04.942Z,6.30
2018-12-20T10:55:33.181Z,6.30
2018-12-20T10:58:01.413Z,6.30
2018-12-20T11:00:34.036Z,6.30
2018-12-20T11:03:07.588Z,6.30
2018-12-20T11:05:41.312Z,6.30
2018-12-20T11:08:15.040Z,6.30
2018-12-20T11:10:43.219Z,6.30
2018-12-20T11:13:16.916Z,6.30
2018-12-20T11:15:45.104Z,6.30
2018-12-20T11:18:13.265Z,6.40
2018-12-20T11:20:41.426Z,6.40
2018-12-20T11:23:09.771Z,6.40
2018-12-20T11:25:37.991Z,6.40
2018-12-20T11:28:06.215Z,6.50
2018-12-20T11:30:34.462Z,6.40
2018-12-20T11:33:02.631Z,6.40
2018-12-20T11:35:30.877Z,6.40
2018-12-20T11:37:59.038Z,6.40
2018-12-20T11:40:27.188Z,6.40
2018-12-20T11:42:55.493Z,8.10
2018-12-20T11:45:23.740Z,6.60
2018-12-20T11:47:51.956Z,6.80
2018-12-20T11:50:20.122Z,6.90
2018-12-20T11:52:48.303Z,6.90
2018-12-20T11:55:16.620Z,6.90
2018-12-20T11:57:44.882Z,6.90
2018-12-20T12:03:11.553Z,7.00
2018-12-20T12:05:45.411Z,7.10
2018-12-20T12:08:19.544Z,7.20
2018-12-20T12:10:51.465Z,7.20
2018-12-20T12:13:25.851Z,7.20
2018-12-20T12:16:00.809Z,7.20
2018-12-20T12:18:29.104Z,7.20
2018-12-20T12:20:57.352Z,7.20
2018-12-20T12:23:25.604Z,7.10
2018-12-20T12:25:53.818Z,7.20
2018-12-20T12:28:21.975Z,7.10
2018-12-20T12:30:50.169Z,7.00
2018-12-20T12:33:18.351Z,6.90
2018-12-20T12:35:46.596Z,6.90
2018-12-20T12:38:14.760Z,6.80
2018-12-20T12:40:42.979Z,6.80
2018-12-20T12:43:11.159Z,6.90
2018-12-20T12:45:39.404Z,7.00
2018-12-20T12:48:07.693Z,7.10
2018-12-20T12:50:35.910Z,7.10
2018-12-20T12:53:04.288Z,7.10
2018-12-20T12:55:40.099Z,7.00
2018-12-20T12:58:08.272Z,6.90
2018-12-20T13:00:36.430Z,6.80
2018-12-20T13:03:04.717Z,6.90
2018-12-20T13:05:32.955Z,7.10
2018-12-20T13:08:01.131Z,7.20
2018-12-20T13:10:29.297Z,7.20
2018-12-20T13:12:57.451Z,7.20
2018-12-20T13:15:25.672Z,7.20
2018-12-20T13:17:53.811Z,7.30
2018-12-20T13:20:22.025Z,7.20
2018-12-20T13:22:50.211Z,7.20
2018-12-20T13:25:18.368Z,7.20
2018-12-20T13:27:46.503Z,7.10
2018-12-20T13:30:14.828Z,7.00
2018-12-20T13:32:42.963Z,7.00
2018-12-20T13:35:11.206Z,6.90
2018-12-20T13:37:39.364Z,6.90
2018-12-20T13:40:07.772Z,6.80
2018-12-20T13:42:36.024Z,6.70
2018-12-20T13:45:05.394Z,6.70
2018-12-20T13:47:33.532Z,6.60
2018-12-20T13:50:01.767Z,6.50
2018-12-20T13:52:32.003Z,6.50
2018-12-20T13:55:00.284Z,6.40
2018-12-20T13:57:29.547Z,6.30
2018-12-20T13:59:57.739Z,6.30
2018-12-20T14:02:25.913Z,6.30
2018-12-20T14:04:54.070Z,6.20
2018-12-20T14:07:22.236Z,6.10
2018-12-20T14:09:50.415Z,6.10
2018-12-20T14:12:18.648Z,6.00
2018-12-20T14:14:46.907Z,5.90
2018-12-20T14:17:15.064Z,5.80
2018-12-20T14:19:43.240Z,5.80
2018-12-20T14:22:11.407Z,5.80
2018-12-20T14:24:39.567Z,5.80
2018-12-20T14:27:07.730Z,5.80
2018-12-20T14:29:35.899Z,5.90
2018-12-20T14:32:04.063Z,5.90
2018-12-20T14:34:32.241Z,6.00
2018-12-20T14:37:00.456Z,6.00
2018-12-20T14:39:28.603Z,5.90
2018-12-20T14:41:56.740Z,5.90
2018-12-20T14:44:24.913Z,5.80
2018-12-20T14:46:53.143Z,5.70
2018-12-20T14:49:21.296Z,5.60
2018-12-20T14:51:49.453Z,5.60
2018-12-20T14:54:17.608Z,5.70
2018-12-20T14:56:45.791Z,5.60
2018-12-20T14:59:13.936Z,5.50
2018-12-20T15:01:42.153Z,5.60
2018-12-20T15:04:10.347Z,5.50
2018-12-20T15:06:38.752Z,5.40
2018-12-20T15:09:07.944Z,5.30
2018-12-20T15:11:36.272Z,5.30
2018-12-20T15:14:04.511Z,5.30
2018-12-20T15:16:32.741Z,5.30
2018-12-20T15:19:00.903Z,5.30
2018-12-20T15:21:29.086Z,5.40
2018-12-20T15:23:57.221Z,5.40
2018-12-20T15:26:25.388Z,5.30
2018-12-20T15:28:53.548Z,5.30
2018-12-20T15:31:21.819Z,5.30
2018-12-20T15:33:50.050Z,5.30
2018-12-20T15:36:18.289Z,5.30
2018-12-20T15:38:46.448Z,5.30
2018-12-20T15:41:14.604Z,5.20
2018-12-20T15:43:42.949Z,5.10
2018-12-20T15:46:11.275Z,4.90
2018-12-20T15:48:39.434Z,4.80
2018-12-20T15:51:07.592Z,4.90
2018-12-20T15:53:35.744Z,4.90
2018-12-20T15:56:03.972Z,5.00
2018-12-20T15:58:32.136Z,5.00
2018-12-20T16:01:00.393Z,5.00
2018-12-20T16:03:28.563Z,5.00
2018-12-20T16:05:56.723Z,5.00
2018-12-20T16:08:24.892Z,5.00
2018-12-20T16:10:53.060Z,5.00
2018-12-20T16:13:21.371Z,5.00
2018-12-20T16:15:49.556Z,4.90
2018-12-20T16:18:17.791Z,4.90
2018-12-20T16:20:45.967Z,4.90
2018-12-20T16:23:14.136Z,4.80
2018-12-20T16:25:42.317Z,4.80
2018-12-20T16:28:10.585Z,4.80
2018-12-20T16:30:38.957Z,4.70
2018-12-20T16:33:07.208Z,4.60
2018-12-20T16:35:35.407Z,4.50
2018-12-20T16:38:03.621Z,4.40
2018-12-20T16:40:31.777Z,4.30
2018-12-20T16:42:59.936Z,4.20
2018-12-20T16:45:28.125Z,4.10
2018-12-20T16:47:56.356Z,4.10
2018-12-20T16:50:24.521Z,4.10
2018-12-20T16:52:52.752Z,3.90
2018-12-20T16:55:21.886Z,3.90
2018-12-20T16:57:50.038Z,3.90
2018-12-20T17:00:18.192Z,3.90
2018-12-20T17:02:46.472Z,3.90
2018-12-20T17:05:14.644Z,3.90
2018-12-20T17:07:42.799Z,4.00
2018-12-20T17:10:11.133Z,4.00
2018-12-20T17:12:39.373Z,4.10
2018-12-20T17:15:07.631Z,4.20
2018-12-20T17:17:35.800Z,4.20
2018-12-20T17:20:04.582Z,4.20
2018-12-20T17:22:33.069Z,4.10
2018-12-20T17:25:01.349Z,4.20
2018-12-20T17:27:29.808Z,4.20
2018-12-20T17:29:58.601Z,4.20
2018-12-20T17:32:26.765Z,4.30
2018-12-20T17:34:54.960Z,4.40
2018-12-20T17:37:23.113Z,4.30
2018-12-20T17:39:51.287Z,4.30
2018-12-20T17:42:19.494Z,4.30
2018-12-20T17:44:47.795Z,4.30
2018-12-20T17:47:16.085Z,4.40
2018-12-20T17:49:44.258Z,4.50
2018-12-20T17:52:12.526Z,4.50
2018-12-20T17:54:40.692Z,4.50
2018-12-20T17:57:08.873Z,4.40
2018-12-20T17:59:37.062Z,4.40
2018-12-20T18:02:05.374Z,4.40
2018-12-20T18:04:33.577Z,4.30
2018-12-20T18:07:01.747Z,4.40
2018-12-20T18:09:29.903Z,4.40
2018-12-20T18:11:58.072Z,4.50
2018-12-20T18:14:26.271Z,4.50
2018-12-20T18:16:54.445Z,4.50
2018-12-20T18:19:22.708Z,4.50
2018-12-20T18:21:50.884Z,4.50
2018-12-20T18:24:19.177Z,4.50
2018-12-20T18:26:48.144Z,4.60
2018-12-20T18:29:16.340Z,4.50
2018-12-20T18:31:44.612Z,4.50
2018-12-20T18:34:12.845Z,4.40
2018-12-20T18:36:41.003Z,4.50
2018-12-20T18:39:09.180Z,4.60
2018-12-20T18:41:38.351Z,4.60
2018-12-20T18:44:06.580Z,4.70
2018-12-20T18:46:34.846Z,4.60
2018-12-20T18:49:03.217Z,4.60
2018-12-20T18:51:31.423Z,4.60
2018-12-20T18:53:59.589Z,4.70
2018-12-20T18:56:28.054Z,4.70
2018-12-20T18:59:02.373Z,4.60
2018-12-20T19:01:37.237Z,4.70
2018-12-20T19:04:13.710Z,4.70
2018-12-20T19:06:42.402Z,4.70
2018-12-20T19:09:16.512Z,4.70
2018-12-20T19:17:50.518Z,4.60
2018-12-20T19:20:25.034Z,4.70
2018-12-20T19:23:16.327Z,4.70
2018-12-20T19:25:44.581Z,4.70
2018-12-20T19:28:12.751Z,4.70
2018-12-20T19:30:40.967Z,4.60
2018-12-20T19:33:09.283Z,4.50
2018-12-20T19:35:56.345Z,4.50
2018-12-20T19:38:24.529Z,4.50
2018-12-20T19:40:54.368Z,4.50
2018-12-20T19:43:22.722Z,4.50
2018-12-20T19:45:54.844Z,4.50
2018-12-20T19:57:45.865Z,4.50
2018-12-20T20:00:23.861Z,4.60
2018-12-20T20:11:58.445Z,4.70
2018-12-20T20:14:49.859Z,4.70
2018-12-20T20:17:18.117Z,4.70
2018-12-20T20:19:46.284Z,4.70
2018-12-20T20:22:14.462Z,4.70
2018-12-20T20:24:42.711Z,4.60
2018-12-20T20:27:10.890Z,4.50
2018-12-20T20:29:39.071Z,4.40
2018-12-20T20:32:07.312Z,4.30
2018-12-20T20:34:35.459Z,4.30
2018-12-20T20:37:03.704Z,4.20
2018-12-20T20:39:32.872Z,4.20
2018-12-20T20:42:01.067Z,4.20
2018-12-20T20:44:33.198Z,4.20
2018-12-20T20:47:01.373Z,4.20
2018-12-20T20:49:29.534Z,4.20
2018-12-20T20:58:01.739Z,4.10
2018-12-20T21:00:33.251Z,4.10
2018-12-20T21:03:01.429Z,4.00
2018-12-20T21:05:32.726Z,3.90
2018-12-20T21:11:11.616Z,3.60
2018-12-20T21:13:39.868Z,3.60
2018-12-20T21:16:11.514Z,3.50
2018-12-20T21:18:46.990Z,3.40
2018-12-20T21:30:28.857Z,3.60
2018-12-20T21:32:57.176Z,3.50
2018-12-20T21:35:30.944Z,3.50
2018-12-20T21:38:05.097Z,3.60
2018-12-20T21:40:37.263Z,3.70
2018-12-20T21:43:08.516Z,3.80
2018-12-20T21:45:42.870Z,3.90
2018-12-20T21:48:17.250Z,4.00
2018-12-20T21:50:48.983Z,4.00
2018-12-20T21:53:20.523Z,4.00
2018-12-20T21:55:52.661Z,4.00
2018-12-20T21:58:24.471Z,4.00
2018-12-20T22:00:58.970Z,4.00
2018-12-20T22:03:32.901Z,4.10
2018-12-20T22:06:02.363Z,4.10
2018-12-20T22:08:36.418Z,4.10
2018-12-20T22:11:12.134Z,4.00
2018-12-20T22:13:46.267Z,3.90
2018-12-20T22:16:17.793Z,3.90
2018-12-20T22:18:52.667Z,3.90
2018-12-20T22:21:24.003Z,3.90
2018-12-20T22:23:55.935Z,3.90
2018-12-20T22:26:27.848Z,3.80
2018-12-20T22:28:59.792Z,3.70
2018-12-20T22:31:31.819Z,3.70
2018-12-20T22:34:07.122Z,3.60
2018-12-20T22:36:41.373Z,3.60
2018-12-20T22:39:13.604Z,3.70
2018-12-20T22:41:47.868Z,3.70
2018-12-20T22:44:19.204Z,3.70
2018-12-20T22:46:51.154Z,3.80
2018-12-20T22:49:23.267Z,3.80
2018-12-20T22:51:55.299Z,3.80
2018-12-20T22:54:27.251Z,4.00
2018-12-20T22:56:59.103Z,4.00
2018-12-20T22:59:31.135Z,4.10
2018-12-20T23:02:03.227Z,4.20
2018-12-20T23:04:35.313Z,4.20
2018-12-20T23:07:09.629Z,4.20
2018-12-20T23:09:41.299Z,4.20
2018-12-20T23:12:12.816Z,4.30
2018-12-20T23:14:47.060Z,4.30
2018-12-20T23:17:18.603Z,4.30
2018-12-20T23:22:19.062Z,4.20
2018-12-20T23:24:50.873Z,4.10
2018-12-20T23:27:20.544Z,4.10
2018-12-20T23:29:54.829Z,4.10
2018-12-20T23:32:26.376Z,4.00
2018-12-20T23:34:58.311Z,4.00
2018-12-20T23:37:32.564Z,4.10
2018-12-20T23:40:06.285Z,4.00
2018-12-20T23:42:37.983Z,4.00
2018-12-20T23:45:12.149Z,4.00
2018-12-20T23:47:45.940Z,3.90
2018-12-20T23:50:14.135Z,3.90
2018-12-20T23:52:46.062Z,3.80
2018-12-20T23:55:20.516Z,3.80
2018-12-20T23:57:55.122Z,3.60
